Terminal Aerodrome Forecast
Issued by NWS

Home | Current Version | Previous Version | Text Only | Print | Product List | Glossary On
Versions: 1 2 3 4 5 6 7 8 9 10 11 12 13
000
FTUS46 KSEW 250532
TAFCLM
TAF
KCLM 250532Z 2506/2606 27008KT P6SM SCT015 BKN045
      TEMPO 2506/2510 BKN015 BKN045
     FM251000 26006KT P6SM BKN015 BKN045
      TEMPO 2510/2514 SCT015 BKN045
     FM251400 26006KT P6SM SCT020 BKN045
      TEMPO 2514/2518 BKN020 BKN045
     FM251800 VRB03KT P6SM BKN040 BKN120
     FM252300 VRB03KT P6SM -RA OVC040=

USA.gov is the U.S. government's official web portal to all federal, state and local government web resources and services.